ΕΜΥ, Εθνική Μετεωρολογική Υπηρεσία - Δελτία Καιρού, Προγνώσεις

ΑΕΡΟΝΑΥΤΙΛΙΑ

GREEK AIRPORTS CODES

LGIR 060150Z 17032KT 9999 SCT025 23/05 Q1007 NOSIG=

EUROPEAN AIRPORTS CODES

LFPO 060200Z AUTO 26008KT 230V290 9999 FEW014 BKN072 OVC08211/10 Q1002 NOSIG=